sensor_id;sensor_type;location;lat;lon;timestamp;P1;durP1;ratioP1;P2;durP2;ratioP2
60969;SDS011;46841;48.938;9.502;2023-09-19T00:02:16;0.20;;;0.20;;
60969;SDS011;46841;48.938;9.502;2023-09-19T00:04:41;0.20;;;0.20;;
60969;SDS011;46841;48.938;9.502;2023-09-19T00:07:08;0.20;;;0.20;;
60969;SDS011;46841;48.938;9.502;2023-09-19T00:09:34;0.20;;;0.20;;
60969;SDS011;46841;48.938;9.502;2023-09-19T00:12:04;0.20;;;0.20;;
60969;SDS011;46841;48.938;9.502;2023-09-19T00:14:30;0.13;;;0.13;;
60969;SDS011;46841;48.938;9.502;2023-09-19T00:16:55;0.20;;;0.20;;
60969;SDS011;46841;48.938;9.502;2023-09-19T00:19:20;0.20;;;0.20;;
60969;SDS011;46841;48.938;9.502;2023-09-19T00:21:46;0.20;;;0.20;;
60969;SDS011;46841;48.938;9.502;2023-09-19T00:24:12;0.20;;;0.20;;
60969;SDS011;46841;48.938;9.502;2023-09-19T00:26:39;0.20;;;0.20;;
60969;SDS011;46841;48.938;9.502;2023-09-19T00:29:04;0.20;;;0.20;;
60969;SDS011;46841;48.938;9.502;2023-09-19T00:31:29;0.20;;;0.20;;
60969;SDS011;46841;48.938;9.502;2023-09-19T00:33:55;0.20;;;0.20;;
60969;SDS011;46841;48.938;9.502;2023-09-19T00:36:22;0.20;;;0.20;;
60969;SDS011;46841;48.938;9.502;2023-09-19T00:38:48;0.20;;;0.20;;
60969;SDS011;46841;48.938;9.502;2023-09-19T00:41:13;0.20;;;0.20;;
60969;SDS011;46841;48.938;9.502;2023-09-19T00:43:38;0.20;;;0.20;;
60969;SDS011;46841;48.938;9.502;2023-09-19T00:46:05;0.20;;;0.20;;
60969;SDS011;46841;48.938;9.502;2023-09-19T00:48:31;0.20;;;0.20;;
60969;SDS011;46841;48.938;9.502;2023-09-19T00:50:58;0.20;;;0.20;;
60969;SDS011;46841;48.938;9.502;2023-09-19T00:53:27;0.20;;;0.20;;
60969;SDS011;46841;48.938;9.502;2023-09-19T00:55:53;0.20;;;0.20;;
60969;SDS011;46841;48.938;9.502;2023-09-19T00:58:18;0.20;;;0.20;;
60969;SDS011;46841;48.938;9.502;2023-09-19T01:00:44;0.20;;;0.20;;
60969;SDS011;46841;48.938;9.502;2023-09-19T01:03:10;0.20;;;0.20;;
60969;SDS011;46841;48.938;9.502;2023-09-19T01:05:35;0.10;;;0.10;;
60969;SDS011;46841;48.938;9.502;2023-09-19T01:08:01;0.20;;;0.20;;
60969;SDS011;46841;48.938;9.502;2023-09-19T01:10:26;0.20;;;0.20;;
60969;SDS011;46841;48.938;9.502;2023-09-19T01:13:03;0.20;;;0.20;;
60969;SDS011;46841;48.938;9.502;2023-09-19T01:28:07;0.20;;;0.20;;
60969;SDS011;46841;48.938;9.502;2023-09-19T01:30:39;0.20;;;0.20;;
60969;SDS011;46841;48.938;9.502;2023-09-19T01:33:05;0.20;;;0.20;;
60969;SDS011;46841;48.938;9.502;2023-09-19T01:35:31;0.20;;;0.20;;
60969;SDS011;46841;48.938;9.502;2023-09-19T01:37:57;0.20;;;0.20;;
60969;SDS011;46841;48.938;9.502;2023-09-19T01:40:23;0.20;;;0.20;;
60969;SDS011;46841;48.938;9.502;2023-09-19T01:42:54;0.20;;;0.20;;
60969;SDS011;46841;48.938;9.502;2023-09-19T01:47:56;0.20;;;0.20;;
60969;SDS011;46841;48.938;9.502;2023-09-19T01:50:30;0.15;;;0.15;;
60969;SDS011;46841;48.938;9.502;2023-09-19T01:53:06;0.20;;;0.20;;
60969;SDS011;46841;48.938;9.502;2023-09-19T01:55:36;0.20;;;0.20;;
60969;SDS011;46841;48.938;9.502;2023-09-19T01:58:14;0.20;;;0.20;;
60969;SDS011;46841;48.938;9.502;2023-09-19T02:00:41;0.20;;;0.20;;
60969;SDS011;46841;48.938;9.502;2023-09-19T02:03:08;0.20;;;0.20;;
60969;SDS011;46841;48.938;9.502;2023-09-19T02:05:33;0.10;;;0.10;;
60969;SDS011;46841;48.938;9.502;2023-09-19T02:07:59;0.20;;;0.20;;
60969;SDS011;46841;48.938;9.502;2023-09-19T02:10:25;0.20;;;0.20;;
60969;SDS011;46841;48.938;9.502;2023-09-19T02:12:51;0.20;;;0.20;;
60969;SDS011;46841;48.938;9.502;2023-09-19T02:15:16;0.20;;;0.20;;
60969;SDS011;46841;48.938;9.502;2023-09-19T02:17:42;0.20;;;0.20;;
60969;SDS011;46841;48.938;9.502;2023-09-19T02:20:10;0.20;;;0.20;;
60969;SDS011;46841;48.938;9.502;2023-09-19T02:22:36;0.20;;;0.20;;
60969;SDS011;46841;48.938;9.502;2023-09-19T02:25:01;0.20;;;0.20;;
60969;SDS011;46841;48.938;9.502;2023-09-19T02:27:27;0.20;;;0.20;;
60969;SDS011;46841;48.938;9.502;2023-09-19T02:29:52;0.20;;;0.20;;
60969;SDS011;46841;48.938;9.502;2023-09-19T02:32:17;0.20;;;0.20;;
60969;SDS011;46841;48.938;9.502;2023-09-19T02:34:43;0.20;;;0.20;;
60969;SDS011;46841;48.938;9.502;2023-09-19T02:37:09;0.20;;;0.20;;
60969;SDS011;46841;48.938;9.502;2023-09-19T02:39:35;0.20;;;0.20;;
60969;SDS011;46841;48.938;9.502;2023-09-19T02:42:01;0.20;;;0.20;;
60969;SDS011;46841;48.938;9.502;2023-09-19T02:44:27;0.20;;;0.20;;
60969;SDS011;46841;48.938;9.502;2023-09-19T02:46:52;0.20;;;0.20;;
60969;SDS011;46841;48.938;9.502;2023-09-19T02:49:18;0.20;;;0.20;;
60969;SDS011;46841;48.938;9.502;2023-09-19T02:51:43;0.20;;;0.20;;
60969;SDS011;46841;48.938;9.502;2023-09-19T02:54:09;0.20;;;0.20;;
60969;SDS011;46841;48.938;9.502;2023-09-19T02:56:35;0.20;;;0.20;;
60969;SDS011;46841;48.938;9.502;2023-09-19T02:59:00;0.20;;;0.20;;
60969;SDS011;46841;48.938;9.502;2023-09-19T03:01:26;0.13;;;0.13;;
60969;SDS011;46841;48.938;9.502;2023-09-19T03:03:53;0.20;;;0.20;;
60969;SDS011;46841;48.938;9.502;2023-09-19T03:06:19;0.20;;;0.20;;
60969;SDS011;46841;48.938;9.502;2023-09-19T03:08:46;0.30;;;0.30;;
60969;SDS011;46841;48.938;9.502;2023-09-19T03:11:12;0.20;;;0.20;;
60969;SDS011;46841;48.938;9.502;2023-09-19T03:13:40;0.20;;;0.20;;
60969;SDS011;46841;48.938;9.502;2023-09-19T03:18:33;0.20;;;0.20;;
60969;SDS011;46841;48.938;9.502;2023-09-19T03:20:59;0.20;;;0.20;;
60969;SDS011;46841;48.938;9.502;2023-09-19T03:23:28;0.20;;;0.20;;
60969;SDS011;46841;48.938;9.502;2023-09-19T03:25:55;0.20;;;0.20;;
60969;SDS011;46841;48.938;9.502;2023-09-19T03:28:21;0.20;;;0.20;;
60969;SDS011;46841;48.938;9.502;2023-09-19T03:33:26;0.20;;;0.20;;
60969;SDS011;46841;48.938;9.502;2023-09-19T03:35:52;0.20;;;0.20;;
60969;SDS011;46841;48.938;9.502;2023-09-19T03:38:17;0.20;;;0.20;;
60969;SDS011;46841;48.938;9.502;2023-09-19T03:40:43;0.20;;;0.20;;
60969;SDS011;46841;48.938;9.502;2023-09-19T03:43:08;0.20;;;0.20;;
60969;SDS011;46841;48.938;9.502;2023-09-19T03:45:34;0.20;;;0.20;;
60969;SDS011;46841;48.938;9.502;2023-09-19T03:47:59;0.20;;;0.20;;
60969;SDS011;46841;48.938;9.502;2023-09-19T03:50:25;0.20;;;0.20;;
60969;SDS011;46841;48.938;9.502;2023-09-19T03:52:55;0.20;;;0.20;;
60969;SDS011;46841;48.938;9.502;2023-09-19T03:55:20;0.20;;;0.20;;
60969;SDS011;46841;48.938;9.502;2023-09-19T03:57:49;0.20;;;0.20;;
60969;SDS011;46841;48.938;9.502;2023-09-19T04:00:15;0.20;;;0.20;;
60969;SDS011;46841;48.938;9.502;2023-09-19T04:02:43;0.20;;;0.20;;
60969;SDS011;46841;48.938;9.502;2023-09-19T04:05:09;0.20;;;0.20;;
60969;SDS011;46841;48.938;9.502;2023-09-19T04:07:36;0.20;;;0.20;;
60969;SDS011;46841;48.938;9.502;2023-09-19T04:10:01;0.20;;;0.20;;
60969;SDS011;46841;48.938;9.502;2023-09-19T04:12:26;0.20;;;0.20;;
60969;SDS011;46841;48.938;9.502;2023-09-19T04:14:52;0.20;;;0.20;;
60969;SDS011;46841;48.938;9.502;2023-09-19T04:17:17;0.20;;;0.20;;
60969;SDS011;46841;48.938;9.502;2023-09-19T04:19:43;0.20;;;0.20;;
60969;SDS011;46841;48.938;9.502;2023-09-19T04:22:10;0.20;;;0.20;;
60969;SDS011;46841;48.938;9.502;2023-09-19T04:24:37;0.20;;;0.20;;
60969;SDS011;46841;48.938;9.502;2023-09-19T04:27:03;0.20;;;0.20;;
60969;SDS011;46841;48.938;9.502;2023-09-19T04:29:28;0.20;;;0.20;;
60969;SDS011;46841;48.938;9.502;2023-09-19T04:31:54;0.20;;;0.20;;
60969;SDS011;46841;48.938;9.502;2023-09-19T04:34:19;0.20;;;0.20;;
60969;SDS011;46841;48.938;9.502;2023-09-19T04:36:45;0.20;;;0.20;;
60969;SDS011;46841;48.938;9.502;2023-09-19T04:39:10;0.20;;;0.20;;
60969;SDS011;46841;48.938;9.502;2023-09-19T04:41:36;0.20;;;0.20;;
60969;SDS011;46841;48.938;9.502;2023-09-19T04:44:04;0.20;;;0.20;;
60969;SDS011;46841;48.938;9.502;2023-09-19T04:46:29;0.20;;;0.20;;
60969;SDS011;46841;48.938;9.502;2023-09-19T04:48:55;0.20;;;0.20;;
60969;SDS011;46841;48.938;9.502;2023-09-19T04:51:20;0.20;;;0.20;;
60969;SDS011;46841;48.938;9.502;2023-09-19T04:53:46;0.20;;;0.20;;
60969;SDS011;46841;48.938;9.502;2023-09-19T04:56:11;0.20;;;0.20;;
60969;SDS011;46841;48.938;9.502;2023-09-19T04:58:36;0.30;;;0.30;;
60969;SDS011;46841;48.938;9.502;2023-09-19T05:01:02;0.20;;;0.20;;
60969;SDS011;46841;48.938;9.502;2023-09-19T05:03:30;0.20;;;0.20;;
60969;SDS011;46841;48.938;9.502;2023-09-19T05:05:55;0.20;;;0.20;;
60969;SDS011;46841;48.938;9.502;2023-09-19T05:08:20;0.20;;;0.20;;
60969;SDS011;46841;48.938;9.502;2023-09-19T05:10:47;0.30;;;0.30;;
60969;SDS011;46841;48.938;9.502;2023-09-19T05:13:12;0.20;;;0.20;;
60969;SDS011;46841;48.938;9.502;2023-09-19T05:15:38;0.20;;;0.20;;
60969;SDS011;46841;48.938;9.502;2023-09-19T05:18:04;0.20;;;0.20;;
60969;SDS011;46841;48.938;9.502;2023-09-19T05:20:31;0.20;;;0.20;;
60969;SDS011;46841;48.938;9.502;2023-09-19T05:25:26;0.20;;;0.20;;
60969;SDS011;46841;48.938;9.502;2023-09-19T05:27:54;0.20;;;0.20;;
60969;SDS011;46841;48.938;9.502;2023-09-19T05:30:20;0.30;;;0.30;;
60969;SDS011;46841;48.938;9.502;2023-09-19T05:32:45;0.20;;;0.20;;
60969;SDS011;46841;48.938;9.502;2023-09-19T05:35:10;0.20;;;0.20;;
60969;SDS011;46841;48.938;9.502;2023-09-19T05:37:38;0.20;;;0.20;;
60969;SDS011;46841;48.938;9.502;2023-09-19T05:40:04;0.30;;;0.30;;
60969;SDS011;46841;48.938;9.502;2023-09-19T05:42:35;0.30;;;0.30;;
60969;SDS011;46841;48.938;9.502;2023-09-19T05:45:00;0.30;;;0.30;;
60969;SDS011;46841;48.938;9.502;2023-09-19T05:47:25;0.30;;;0.30;;
60969;SDS011;46841;48.938;9.502;2023-09-19T05:49:51;0.30;;;0.30;;
60969;SDS011;46841;48.938;9.502;2023-09-19T05:52:17;0.30;;;0.30;;
60969;SDS011;46841;48.938;9.502;2023-09-19T05:54:43;0.20;;;0.20;;
60969;SDS011;46841;48.938;9.502;2023-09-19T05:57:08;0.30;;;0.30;;
60969;SDS011;46841;48.938;9.502;2023-09-19T05:59:33;0.30;;;0.30;;
60969;SDS011;46841;48.938;9.502;2023-09-19T06:01:59;0.25;;;0.25;;
60969;SDS011;46841;48.938;9.502;2023-09-19T06:04:25;0.30;;;0.30;;
60969;SDS011;46841;48.938;9.502;2023-09-19T06:06:50;0.30;;;0.30;;
60969;SDS011;46841;48.938;9.502;2023-09-19T06:09:16;0.30;;;0.30;;
60969;SDS011;46841;48.938;9.502;2023-09-19T06:11:42;0.30;;;0.30;;
60969;SDS011;46841;48.938;9.502;2023-09-19T06:14:07;0.30;;;0.30;;
60969;SDS011;46841;48.938;9.502;2023-09-19T06:16:33;0.30;;;0.30;;
60969;SDS011;46841;48.938;9.502;2023-09-19T06:18:58;0.30;;;0.30;;
60969;SDS011;46841;48.938;9.502;2023-09-19T06:21:26;0.30;;;0.30;;
60969;SDS011;46841;48.938;9.502;2023-09-19T06:23:52;0.30;;;0.30;;
60969;SDS011;46841;48.938;9.502;2023-09-19T06:26:18;0.30;;;0.30;;
60969;SDS011;46841;48.938;9.502;2023-09-19T06:28:43;0.30;;;0.30;;
60969;SDS011;46841;48.938;9.502;2023-09-19T06:31:09;0.20;;;0.20;;
60969;SDS011;46841;48.938;9.502;2023-09-19T06:33:35;0.30;;;0.30;;
60969;SDS011;46841;48.938;9.502;2023-09-19T06:36:03;0.30;;;0.30;;
60969;SDS011;46841;48.938;9.502;2023-09-19T06:38:29;0.30;;;0.30;;
60969;SDS011;46841;48.938;9.502;2023-09-19T06:40:55;0.30;;;0.30;;
60969;SDS011;46841;48.938;9.502;2023-09-19T06:43:20;0.30;;;0.30;;
60969;SDS011;46841;48.938;9.502;2023-09-19T06:45:46;0.30;;;0.30;;
60969;SDS011;46841;48.938;9.502;2023-09-19T06:48:11;0.30;;;0.30;;
60969;SDS011;46841;48.938;9.502;2023-09-19T06:50:37;0.30;;;0.30;;
60969;SDS011;46841;48.938;9.502;2023-09-19T06:53:03;0.30;;;0.30;;
60969;SDS011;46841;48.938;9.502;2023-09-19T06:55:29;0.30;;;0.30;;
60969;SDS011;46841;48.938;9.502;2023-09-19T06:57:56;0.30;;;0.30;;
60969;SDS011;46841;48.938;9.502;2023-09-19T07:00:22;0.30;;;0.30;;
60969;SDS011;46841;48.938;9.502;2023-09-19T07:02:58;0.30;;;0.30;;
60969;SDS011;46841;48.938;9.502;2023-09-19T07:05:26;0.30;;;0.30;;
60969;SDS011;46841;48.938;9.502;2023-09-19T07:07:52;0.30;;;0.30;;
60969;SDS011;46841;48.938;9.502;2023-09-19T07:10:19;0.30;;;0.30;;
60969;SDS011;46841;48.938;9.502;2023-09-19T07:12:45;0.30;;;0.30;;
60969;SDS011;46841;48.938;9.502;2023-09-19T07:15:10;0.30;;;0.30;;
60969;SDS011;46841;48.938;9.502;2023-09-19T07:17:35;0.30;;;0.30;;
60969;SDS011;46841;48.938;9.502;2023-09-19T07:20:02;0.30;;;0.30;;
60969;SDS011;46841;48.938;9.502;2023-09-19T07:22:32;0.30;;;0.30;;
60969;SDS011;46841;48.938;9.502;2023-09-19T07:24:58;0.30;;;0.30;;
60969;SDS011;46841;48.938;9.502;2023-09-19T07:27:23;0.30;;;0.30;;
60969;SDS011;46841;48.938;9.502;2023-09-19T07:29:48;0.30;;;0.30;;
60969;SDS011;46841;48.938;9.502;2023-09-19T07:32:14;0.20;;;0.20;;
60969;SDS011;46841;48.938;9.502;2023-09-19T07:34:39;0.25;;;0.25;;
60969;SDS011;46841;48.938;9.502;2023-09-19T07:37:05;0.30;;;0.30;;
60969;SDS011;46841;48.938;9.502;2023-09-19T07:39:31;0.20;;;0.20;;
60969;SDS011;46841;48.938;9.502;2023-09-19T07:41:56;0.20;;;0.20;;
60969;SDS011;46841;48.938;9.502;2023-09-19T07:44:22;0.30;;;0.30;;
60969;SDS011;46841;48.938;9.502;2023-09-19T07:46:47;0.20;;;0.20;;
60969;SDS011;46841;48.938;9.502;2023-09-19T07:49:16;0.30;;;0.30;;
60969;SDS011;46841;48.938;9.502;2023-09-19T07:51:43;0.30;;;0.30;;
60969;SDS011;46841;48.938;9.502;2023-09-19T07:54:12;0.30;;;0.30;;
60969;SDS011;46841;48.938;9.502;2023-09-19T07:56:40;0.30;;;0.30;;
60969;SDS011;46841;48.938;9.502;2023-09-19T07:59:05;0.30;;;0.30;;
60969;SDS011;46841;48.938;9.502;2023-09-19T08:01:30;0.20;;;0.20;;
60969;SDS011;46841;48.938;9.502;2023-09-19T08:03:56;0.30;;;0.30;;
60969;SDS011;46841;48.938;9.502;2023-09-19T08:06:22;0.30;;;0.30;;
60969;SDS011;46841;48.938;9.502;2023-09-19T08:08:50;0.20;;;0.20;;
60969;SDS011;46841;48.938;9.502;2023-09-19T08:11:15;0.22;;;0.22;;
60969;SDS011;46841;48.938;9.502;2023-09-19T08:13:46;0.20;;;0.20;;
60969;SDS011;46841;48.938;9.502;2023-09-19T08:16:14;0.20;;;0.20;;
60969;SDS011;46841;48.938;9.502;2023-09-19T08:18:47;0.20;;;0.20;;
60969;SDS011;46841;48.938;9.502;2023-09-19T08:21:13;0.20;;;0.20;;
60969;SDS011;46841;48.938;9.502;2023-09-19T08:23:39;0.20;;;0.20;;
60969;SDS011;46841;48.938;9.502;2023-09-19T08:26:06;0.23;;;0.23;;
60969;SDS011;46841;48.938;9.502;2023-09-19T08:28:34;0.20;;;0.20;;
60969;SDS011;46841;48.938;9.502;2023-09-19T08:31:03;0.22;;;0.22;;
60969;SDS011;46841;48.938;9.502;2023-09-19T08:33:31;0.20;;;0.20;;
60969;SDS011;46841;48.938;9.502;2023-09-19T08:35:56;0.30;;;0.30;;
60969;SDS011;46841;48.938;9.502;2023-09-19T08:38:21;0.20;;;0.20;;
60969;SDS011;46841;48.938;9.502;2023-09-19T08:40:47;0.20;;;0.20;;
60969;SDS011;46841;48.938;9.502;2023-09-19T08:43:12;0.20;;;0.20;;
60969;SDS011;46841;48.938;9.502;2023-09-19T08:45:37;0.20;;;0.20;;
60969;SDS011;46841;48.938;9.502;2023-09-19T08:48:15;0.20;;;0.20;;
60969;SDS011;46841;48.938;9.502;2023-09-19T08:50:52;0.20;;;0.20;;
60969;SDS011;46841;48.938;9.502;2023-09-19T08:53:31;0.20;;;0.20;;
60969;SDS011;46841;48.938;9.502;2023-09-19T08:55:59;0.20;;;0.20;;
60969;SDS011;46841;48.938;9.502;2023-09-19T08:58:31;0.20;;;0.20;;
60969;SDS011;46841;48.938;9.502;2023-09-19T09:00:58;0.20;;;0.20;;
60969;SDS011;46841;48.938;9.502;2023-09-19T09:03:26;0.20;;;0.20;;
60969;SDS011;46841;48.938;9.502;2023-09-19T09:05:52;0.10;;;0.10;;
60969;SDS011;46841;48.938;9.502;2023-09-19T09:08:18;0.20;;;0.20;;
60969;SDS011;46841;48.938;9.502;2023-09-19T09:10:45;0.20;;;0.20;;
60969;SDS011;46841;48.938;9.502;2023-09-19T09:13:10;0.20;;;0.20;;
60969;SDS011;46841;48.938;9.502;2023-09-19T09:15:39;0.20;;;0.20;;
60969;SDS011;46841;48.938;9.502;2023-09-19T09:18:06;0.10;;;0.10;;
60969;SDS011;46841;48.938;9.502;2023-09-19T09:20:31;0.10;;;0.10;;
60969;SDS011;46841;48.938;9.502;2023-09-19T09:22:57;0.20;;;0.20;;
60969;SDS011;46841;48.938;9.502;2023-09-19T09:25:50;0.10;;;0.10;;
60969;SDS011;46841;48.938;9.502;2023-09-19T09:28:20;0.10;;;0.10;;
60969;SDS011;46841;48.938;9.502;2023-09-19T09:30:46;0.20;;;0.20;;
60969;SDS011;46841;48.938;9.502;2023-09-19T09:33:12;0.10;;;0.10;;
60969;SDS011;46841;48.938;9.502;2023-09-19T09:35:48;0.10;;;0.10;;
60969;SDS011;46841;48.938;9.502;2023-09-19T09:38:17;0.10;;;0.10;;
60969;SDS011;46841;48.938;9.502;2023-09-19T09:40:47;0.20;;;0.20;;
60969;SDS011;46841;48.938;9.502;2023-09-19T09:43:27;0.10;;;0.10;;
60969;SDS011;46841;48.938;9.502;2023-09-19T09:51:41;0.10;;;0.10;;
60969;SDS011;46841;48.938;9.502;2023-09-19T09:54:12;0.10;;;0.10;;
60969;SDS011;46841;48.938;9.502;2023-09-19T09:56:56;0.10;;;0.10;;
60969;SDS011;46841;48.938;9.502;2023-09-19T10:02:15;0.10;;;0.10;;
60969;SDS011;46841;48.938;9.502;2023-09-19T10:04:45;0.10;;;0.10;;
60969;SDS011;46841;48.938;9.502;2023-09-19T10:07:50;0.10;;;0.10;;
60969;SDS011;46841;48.938;9.502;2023-09-19T10:10:14;0.13;;;0.13;;
60969;SDS011;46841;48.938;9.502;2023-09-19T10:12:49;0.20;;;0.20;;
60969;SDS011;46841;48.938;9.502;2023-09-19T10:15:21;0.13;;;0.13;;
60969;SDS011;46841;48.938;9.502;2023-09-19T10:17:49;0.10;;;0.10;;
60969;SDS011;46841;48.938;9.502;2023-09-19T10:20:21;0.10;;;0.10;;
60969;SDS011;46841;48.938;9.502;2023-09-19T10:23:01;0.10;;;0.10;;
60969;SDS011;46841;48.938;9.502;2023-09-19T10:25:28;0.10;;;0.10;;
60969;SDS011;46841;48.938;9.502;2023-09-19T10:27:54;0.10;;;0.10;;
60969;SDS011;46841;48.938;9.502;2023-09-19T10:30:21;0.10;;;0.10;;
60969;SDS011;46841;48.938;9.502;2023-09-19T10:32:47;0.10;;;0.10;;
60969;SDS011;46841;48.938;9.502;2023-09-19T10:35:18;0.10;;;0.10;;
60969;SDS011;46841;48.938;9.502;2023-09-19T10:37:45;0.20;;;0.20;;
60969;SDS011;46841;48.938;9.502;2023-09-19T10:40:14;0.10;;;0.10;;
60969;SDS011;46841;48.938;9.502;2023-09-19T10:42:41;0.10;;;0.10;;
60969;SDS011;46841;48.938;9.502;2023-09-19T10:45:07;0.10;;;0.10;;
60969;SDS011;46841;48.938;9.502;2023-09-19T10:47:38;0.10;;;0.10;;
60969;SDS011;46841;48.938;9.502;2023-09-19T10:50:03;0.10;;;0.10;;
60969;SDS011;46841;48.938;9.502;2023-09-19T10:52:30;0.10;;;0.10;;
60969;SDS011;46841;48.938;9.502;2023-09-19T10:54:58;0.10;;;0.10;;
60969;SDS011;46841;48.938;9.502;2023-09-19T10:57:26;0.10;;;0.10;;
60969;SDS011;46841;48.938;9.502;2023-09-19T11:02:20;0.10;;;0.10;;
60969;SDS011;46841;48.938;9.502;2023-09-19T11:04:45;0.13;;;0.13;;
60969;SDS011;46841;48.938;9.502;2023-09-19T11:07:13;0.10;;;0.10;;
60969;SDS011;46841;48.938;9.502;2023-09-19T11:09:50;0.13;;;0.13;;
60969;SDS011;46841;48.938;9.502;2023-09-19T11:14:49;0.10;;;0.10;;
60969;SDS011;46841;48.938;9.502;2023-09-19T11:43:45;0.10;;;0.10;;
60969;SDS011;46841;48.938;9.502;2023-09-19T11:46:11;0.10;;;0.10;;
60969;SDS011;46841;48.938;9.502;2023-09-19T11:48:38;0.10;;;0.10;;
60969;SDS011;46841;48.938;9.502;2023-09-19T11:51:09;0.10;;;0.10;;
60969;SDS011;46841;48.938;9.502;2023-09-19T11:53:40;0.10;;;0.10;;
60969;SDS011;46841;48.938;9.502;2023-09-19T11:56:06;0.20;;;0.20;;
60969;SDS011;46841;48.938;9.502;2023-09-19T11:58:32;0.15;;;0.15;;
60969;SDS011;46841;48.938;9.502;2023-09-19T12:00:58;0.10;;;0.10;;
60969;SDS011;46841;48.938;9.502;2023-09-19T12:03:27;0.10;;;0.10;;
60969;SDS011;46841;48.938;9.502;2023-09-19T12:05:55;0.10;;;0.10;;
60969;SDS011;46841;48.938;9.502;2023-09-19T12:08:20;0.10;;;0.10;;
60969;SDS011;46841;48.938;9.502;2023-09-19T12:10:50;0.10;;;0.10;;
60969;SDS011;46841;48.938;9.502;2023-09-19T12:13:20;0.10;;;0.10;;
60969;SDS011;46841;48.938;9.502;2023-09-19T12:15:46;0.10;;;0.10;;
60969;SDS011;46841;48.938;9.502;2023-09-19T12:18:30;0.10;;;0.10;;
60969;SDS011;46841;48.938;9.502;2023-09-19T12:20:55;0.10;;;0.10;;
60969;SDS011;46841;48.938;9.502;2023-09-19T12:23:22;0.10;;;0.10;;
60969;SDS011;46841;48.938;9.502;2023-09-19T12:25:48;0.10;;;0.10;;
60969;SDS011;46841;48.938;9.502;2023-09-19T12:28:17;0.10;;;0.10;;
60969;SDS011;46841;48.938;9.502;2023-09-19T12:30:42;0.03;;;0.03;;
60969;SDS011;46841;48.938;9.502;2023-09-19T12:33:17;0.00;;;0.00;;
60969;SDS011;46841;48.938;9.502;2023-09-19T12:35:51;0.10;;;0.10;;
60969;SDS011;46841;48.938;9.502;2023-09-19T12:38:27;0.10;;;0.10;;
60969;SDS011;46841;48.938;9.502;2023-09-19T12:41:02;0.10;;;0.10;;
60969;SDS011;46841;48.938;9.502;2023-09-19T12:43:30;0.10;;;0.10;;
60969;SDS011;46841;48.938;9.502;2023-09-19T12:45:58;0.03;;;0.03;;
60969;SDS011;46841;48.938;9.502;2023-09-19T12:48:25;0.00;;;0.00;;
60969;SDS011;46841;48.938;9.502;2023-09-19T12:53:25;0.00;;;0.00;;
60969;SDS011;46841;48.938;9.502;2023-09-19T12:56:00;0.10;;;0.10;;
60969;SDS011;46841;48.938;9.502;2023-09-19T12:58:25;0.00;;;0.00;;
60969;SDS011;46841;48.938;9.502;2023-09-19T13:00:51;0.00;;;0.00;;
60969;SDS011;46841;48.938;9.502;2023-09-19T13:03:18;0.10;;;0.10;;
60969;SDS011;46841;48.938;9.502;2023-09-19T13:05:53;0.20;;;0.20;;
60969;SDS011;46841;48.938;9.502;2023-09-19T13:08:21;0.10;;;0.10;;
60969;SDS011;46841;48.938;9.502;2023-09-19T13:16:19;0.00;;;0.00;;
60969;SDS011;46841;48.938;9.502;2023-09-19T13:18:47;0.00;;;0.00;;
60969;SDS011;46841;48.938;9.502;2023-09-19T13:21:15;0.10;;;0.10;;
60969;SDS011;46841;48.938;9.502;2023-09-19T13:23:50;0.10;;;0.10;;
60969;SDS011;46841;48.938;9.502;2023-09-19T13:26:16;0.00;;;0.00;;
60969;SDS011;46841;48.938;9.502;2023-09-19T13:28:41;0.10;;;0.10;;
60969;SDS011;46841;48.938;9.502;2023-09-19T13:31:06;0.10;;;0.10;;
60969;SDS011;46841;48.938;9.502;2023-09-19T13:33:33;0.00;;;0.00;;
60969;SDS011;46841;48.938;9.502;2023-09-19T13:35:58;0.10;;;0.10;;
60969;SDS011;46841;48.938;9.502;2023-09-19T13:38:24;0.10;;;0.10;;
60969;SDS011;46841;48.938;9.502;2023-09-19T13:40:49;0.00;;;0.00;;
60969;SDS011;46841;48.938;9.502;2023-09-19T13:43:14;0.10;;;0.10;;
60969;SDS011;46841;48.938;9.502;2023-09-19T13:45:40;0.00;;;0.00;;
60969;SDS011;46841;48.938;9.502;2023-09-19T13:48:09;0.00;;;0.00;;
60969;SDS011;46841;48.938;9.502;2023-09-19T13:50:36;0.10;;;0.10;;
60969;SDS011;46841;48.938;9.502;2023-09-19T13:53:01;0.20;;;0.20;;
60969;SDS011;46841;48.938;9.502;2023-09-19T13:55:27;0.03;;;0.03;;
60969;SDS011;46841;48.938;9.502;2023-09-19T13:57:52;0.10;;;0.10;;
60969;SDS011;46841;48.938;9.502;2023-09-19T14:00:19;0.10;;;0.10;;
60969;SDS011;46841;48.938;9.502;2023-09-19T14:02:45;0.10;;;0.10;;
60969;SDS011;46841;48.938;9.502;2023-09-19T14:05:11;0.10;;;0.10;;
60969;SDS011;46841;48.938;9.502;2023-09-19T14:07:43;0.00;;;0.00;;
60969;SDS011;46841;48.938;9.502;2023-09-19T14:10:09;0.00;;;0.00;;
60969;SDS011;46841;48.938;9.502;2023-09-19T14:12:38;0.10;;;0.10;;
60969;SDS011;46841;48.938;9.502;2023-09-19T14:15:06;0.00;;;0.00;;
60969;SDS011;46841;48.938;9.502;2023-09-19T14:17:32;0.00;;;0.00;;
60969;SDS011;46841;48.938;9.502;2023-09-19T14:19:57;0.00;;;0.00;;
60969;SDS011;46841;48.938;9.502;2023-09-19T14:22:23;0.00;;;0.00;;
60969;SDS011;46841;48.938;9.502;2023-09-19T14:24:48;0.00;;;0.00;;
60969;SDS011;46841;48.938;9.502;2023-09-19T14:27:13;0.00;;;0.00;;
60969;SDS011;46841;48.938;9.502;2023-09-19T14:32:06;0.00;;;0.00;;
60969;SDS011;46841;48.938;9.502;2023-09-19T14:34:31;0.00;;;0.00;;
60969;SDS011;46841;48.938;9.502;2023-09-19T14:36:58;0.00;;;0.00;;
60969;SDS011;46841;48.938;9.502;2023-09-19T14:39:23;0.00;;;0.00;;
60969;SDS011;46841;48.938;9.502;2023-09-19T14:41:49;0.00;;;0.00;;
60969;SDS011;46841;48.938;9.502;2023-09-19T14:44:14;0.00;;;0.00;;
60969;SDS011;46841;48.938;9.502;2023-09-19T14:46:42;0.00;;;0.00;;
60969;SDS011;46841;48.938;9.502;2023-09-19T14:49:10;0.00;;;0.00;;
60969;SDS011;46841;48.938;9.502;2023-09-19T14:51:37;0.00;;;0.00;;
60969;SDS011;46841;48.938;9.502;2023-09-19T14:54:03;0.00;;;0.00;;
60969;SDS011;46841;48.938;9.502;2023-09-19T14:56:28;0.00;;;0.00;;
60969;SDS011;46841;48.938;9.502;2023-09-19T14:58:55;0.00;;;0.00;;
60969;SDS011;46841;48.938;9.502;2023-09-19T15:01:20;0.00;;;0.00;;
60969;SDS011;46841;48.938;9.502;2023-09-19T15:03:47;0.10;;;0.10;;
60969;SDS011;46841;48.938;9.502;2023-09-19T15:13:32;0.00;;;0.00;;
60969;SDS011;46841;48.938;9.502;2023-09-19T15:16:01;0.00;;;0.00;;
60969;SDS011;46841;48.938;9.502;2023-09-19T15:18:27;0.10;;;0.10;;
60969;SDS011;46841;48.938;9.502;2023-09-19T15:20:56;0.00;;;0.00;;
60969;SDS011;46841;48.938;9.502;2023-09-19T15:23:21;0.00;;;0.00;;
60969;SDS011;46841;48.938;9.502;2023-09-19T15:25:47;0.00;;;0.00;;
60969;SDS011;46841;48.938;9.502;2023-09-19T15:28:13;0.00;;;0.00;;
60969;SDS011;46841;48.938;9.502;2023-09-19T15:30:38;0.10;;;0.10;;
60969;SDS011;46841;48.938;9.502;2023-09-19T15:33:03;0.10;;;0.10;;
60969;SDS011;46841;48.938;9.502;2023-09-19T15:35:29;0.10;;;0.10;;
60969;SDS011;46841;48.938;9.502;2023-09-19T15:37:54;0.10;;;0.10;;
60969;SDS011;46841;48.938;9.502;2023-09-19T15:40:21;0.00;;;0.00;;
60969;SDS011;46841;48.938;9.502;2023-09-19T15:42:48;0.00;;;0.00;;
60969;SDS011;46841;48.938;9.502;2023-09-19T15:45:14;0.00;;;0.00;;
60969;SDS011;46841;48.938;9.502;2023-09-19T15:47:40;0.00;;;0.00;;
60969;SDS011;46841;48.938;9.502;2023-09-19T15:50:06;0.00;;;0.00;;
60969;SDS011;46841;48.938;9.502;2023-09-19T15:52:34;0.00;;;0.00;;
60969;SDS011;46841;48.938;9.502;2023-09-19T15:55:02;0.00;;;0.00;;
60969;SDS011;46841;48.938;9.502;2023-09-19T15:57:28;0.00;;;0.00;;
60969;SDS011;46841;48.938;9.502;2023-09-19T15:59:53;0.00;;;0.00;;
60969;SDS011;46841;48.938;9.502;2023-09-19T16:02:19;0.00;;;0.00;;
60969;SDS011;46841;48.938;9.502;2023-09-19T16:04:44;0.00;;;0.00;;
60969;SDS011;46841;48.938;9.502;2023-09-19T16:07:09;0.00;;;0.00;;
60969;SDS011;46841;48.938;9.502;2023-09-19T16:09:35;0.00;;;0.00;;